createdAt,value
2023-01-02T00:01:45.679Z,17.50
2023-01-02T00:06:47.744Z,11.43
2023-01-02T00:11:49.861Z,19.95
2023-01-02T00:16:52.428Z,19.65
2023-01-02T00:21:54.648Z,16.80
2023-01-02T00:26:56.796Z,11.23
2023-01-02T00:32:00.126Z,12.95
2023-01-02T00:37:02.284Z,7.30
2023-01-02T00:42:04.773Z,8.50
2023-01-02T00:47:06.936Z,7.72
2023-01-02T00:52:09.062Z,6.20
2023-01-02T00:57:11.361Z,7.55
2023-01-02T01:02:14.924Z,1.35
2023-01-02T01:07:17.329Z,4.13
2023-01-02T01:12:19.502Z,2.65
2023-01-02T01:17:21.858Z,5.10
2023-01-02T01:22:24.027Z,2.65
2023-01-02T01:27:26.135Z,6.05
2023-01-02T01:32:29.600Z,5.50
2023-01-02T01:37:31.655Z,3.38
2023-01-02T01:42:34.807Z,9.90
2023-01-02T01:47:49.903Z,0.50
2023-01-02T01:53:02.270Z,2.05
2023-01-02T01:58:24.593Z,5.30
2023-01-02T02:03:29.988Z,3.58
2023-01-02T02:08:48.120Z,5.22
2023-01-02T02:13:50.740Z,3.42
2023-01-02T02:19:17.687Z,3.67
2023-01-02T02:24:56.654Z,2.33
2023-01-02T02:30:14.134Z,5.90
2023-01-02T02:35:53.402Z,4.25
2023-01-02T02:46:03.633Z,5.35
2023-01-02T02:51:15.577Z,4.57
2023-01-02T02:56:20.655Z,10.10
2023-01-02T03:01:30.560Z,12.27
2023-01-02T03:06:36.412Z,7.45
2023-01-02T03:11:49.718Z,2.08
2023-01-02T03:17:01.253Z,9.77
2023-01-02T03:22:14.845Z,12.30
2023-01-02T03:27:23.745Z,6.82
2023-01-02T03:32:31.435Z,4.85
2023-01-02T03:37:36.822Z,7.32
2023-01-02T03:42:45.225Z,2.22
2023-01-02T03:48:00.325Z,9.97
2023-01-02T03:53:03.627Z,10.52
2023-01-02T03:58:22.394Z,7.80
2023-01-02T04:03:40.440Z,7.10
2023-01-02T04:08:52.846Z,14.57
2023-01-02T04:14:00.673Z,6.95
2023-01-02T04:19:33.795Z,6.85
2023-01-02T04:24:42.683Z,10.55
2023-01-02T04:29:44.801Z,15.27
2023-01-02T04:34:48.732Z,8.15
2023-01-02T04:39:51.554Z,14.93
2023-01-02T04:44:53.702Z,8.18
2023-01-02T04:49:55.801Z,6.63
2023-01-02T04:54:57.940Z,10.52
2023-01-02T05:00:00.982Z,10.05
2023-01-02T05:05:03.702Z,6.60
2023-01-02T05:10:06.723Z,6.82
2023-01-02T05:15:10.304Z,6.05
2023-01-02T05:20:13.558Z,4.53
2023-01-02T05:25:15.771Z,12.63
2023-01-02T05:30:17.955Z,6.78
2023-01-02T05:35:20.393Z,5.82
2023-01-02T05:40:22.508Z,3.92
2023-01-02T05:45:24.802Z,9.20
2023-01-02T05:50:27.092Z,6.15
2023-01-02T05:55:29.174Z,2.33
2023-01-02T06:00:31.256Z,6.80
2023-01-02T06:05:35.015Z,9.55
2023-01-02T06:10:37.138Z,1.92
2023-01-02T06:15:39.243Z,4.72
2023-01-02T06:20:41.336Z,4.95
2023-01-02T06:25:43.515Z,5.55
2023-01-02T06:30:45.606Z,10.93
2023-01-02T06:35:47.718Z,1.30
2023-01-02T06:40:54.519Z,3.92
2023-01-02T06:46:01.788Z,5.22
2023-01-02T06:51:09.182Z,1.65
2023-01-02T06:56:13.173Z,2.28
2023-01-02T07:01:21.283Z,1.27
2023-01-02T07:06:23.803Z,3.05
2023-01-02T07:11:26.140Z,7.07
2023-01-02T07:16:28.270Z,3.00
2023-01-02T07:21:30.611Z,2.47
2023-01-02T07:26:32.959Z,8.82
2023-01-02T07:31:35.883Z,5.07
2023-01-02T07:36:37.991Z,1.35
2023-01-02T07:41:40.077Z,1.98
2023-01-02T07:46:49.273Z,2.67
2023-01-02T07:51:51.385Z,2.88
2023-01-02T07:56:53.924Z,4.50
2023-01-02T08:01:56.145Z,2.03
2023-01-02T08:06:58.394Z,2.80
2023-01-02T08:12:00.604Z,5.85
2023-01-02T08:17:02.860Z,3.72
2023-01-02T08:22:05.076Z,1.75
2023-01-02T08:27:07.201Z,0.82
2023-01-02T08:32:09.361Z,1.60
2023-01-02T08:37:11.471Z,1.40
2023-01-02T08:42:13.627Z,0.85
2023-01-02T08:47:16.015Z,4.05
2023-01-02T08:52:18.160Z,0.73
2023-01-02T08:57:20.605Z,4.60
2023-01-02T09:02:22.996Z,1.50
2023-01-02T09:07:25.718Z,4.20
2023-01-02T09:12:28.347Z,1.63
2023-01-02T09:17:30.845Z,2.60
2023-01-02T09:22:33.042Z,4.93
2023-01-02T09:27:35.196Z,9.93
2023-01-02T09:32:37.317Z,10.32
2023-01-02T09:37:39.646Z,14.55
2023-01-02T09:42:43.070Z,5.57
2023-01-02T09:47:47.249Z,7.20
2023-01-02T09:52:57.994Z,6.60
2023-01-02T09:58:38.641Z,8.07
2023-01-02T10:04:00.288Z,6.75
2023-01-02T10:09:11.534Z,8.23
2023-01-02T10:14:34.834Z,4.43
2023-01-02T10:19:42.752Z,6.18
2023-01-02T10:24:47.932Z,16.38
2023-01-02T10:30:07.283Z,11.32
2023-01-02T10:35:16.560Z,15.88
2023-01-02T10:45:21.032Z,6.50
2023-01-02T10:50:28.212Z,1.95
2023-01-02T10:55:32.212Z,4.82
2023-01-02T11:00:36.462Z,6.47
2023-01-02T11:05:51.698Z,1.83
2023-01-02T11:10:53.791Z,5.43
2023-01-02T11:16:00.925Z,10.05
2023-01-02T11:21:05.255Z,2.42
2023-01-02T11:26:13.725Z,8.77
2023-01-02T11:31:19.337Z,0.85
2023-01-02T11:36:21.670Z,1.85
2023-01-02T11:41:48.572Z,2.95
2023-01-02T11:46:54.745Z,8.98
2023-01-02T11:52:01.928Z,1.65
2023-01-02T11:57:05.543Z,5.63
2023-01-02T12:02:23.052Z,4.85
2023-01-02T12:07:49.906Z,10.50
2023-01-02T12:13:31.564Z,3.33
2023-01-02T12:18:50.745Z,4.18
2023-01-02T12:24:08.519Z,7.10
2023-01-02T12:29:47.227Z,2.53
2023-01-02T12:34:53.596Z,7.50
2023-01-02T12:40:00.753Z,7.22
2023-01-02T12:45:03.186Z,4.13
2023-01-02T12:50:11.300Z,5.28
2023-01-02T12:55:13.556Z,3.58
2023-01-02T13:00:43.881Z,5.60
2023-01-02T13:05:54.116Z,6.47
2023-01-02T13:10:59.577Z,9.73
2023-01-02T13:16:24.364Z,4.65
2023-01-02T13:21:51.516Z,7.93
2023-01-02T13:26:56.601Z,9.18
2023-01-02T13:31:59.370Z,6.82
2023-01-02T13:37:12.237Z,9.35
2023-01-02T13:42:47.889Z,6.68
2023-01-02T13:47:56.730Z,4.55
2023-01-02T13:53:10.778Z,1.02
2023-01-02T13:58:13.283Z,2.63
2023-01-02T14:03:24.386Z,1.77
2023-01-02T14:08:26.597Z,3.67
2023-01-02T14:13:51.225Z,0.70
2023-01-02T14:19:18.324Z,0.80
2023-01-02T14:24:29.940Z,3.40
2023-01-02T14:29:43.846Z,4.80
2023-01-02T14:34:53.594Z,7.68
2023-01-02T14:39:55.944Z,1.60
2023-01-02T14:45:03.237Z,0.38
2023-01-02T14:50:16.597Z,2.47
2023-01-02T14:55:24.768Z,1.63
2023-01-02T15:00:37.572Z,0.50
2023-01-02T15:05:48.066Z,1.05
2023-01-02T15:11:19.882Z,2.08
2023-01-02T15:16:24.239Z,4.85
2023-01-02T15:21:29.737Z,3.83
2023-01-02T15:26:36.634Z,3.17
2023-01-02T15:31:39.857Z,3.25
2023-01-02T15:36:42.845Z,3.72
2023-01-02T15:41:51.053Z,5.13
2023-01-02T15:46:53.456Z,1.98
2023-01-02T15:51:57.535Z,7.20
2023-01-02T15:57:11.692Z,1.20
2023-01-02T16:02:32.256Z,4.15
2023-01-02T16:07:38.759Z,4.35
2023-01-02T16:12:41.080Z,3.22
2023-01-02T16:17:49.252Z,3.03
2023-01-02T16:23:04.670Z,1.60
2023-01-02T16:28:35.716Z,3.75
2023-01-02T16:33:39.214Z,3.08
2023-01-02T16:38:57.204Z,3.30
2023-01-02T16:43:59.808Z,16.52
2023-01-02T16:49:05.396Z,11.93
2023-01-02T16:54:11.371Z,26.65
2023-01-02T16:59:13.484Z,4.55
2023-01-02T17:04:15.974Z,7.57
2023-01-02T17:09:18.085Z,10.82
2023-01-02T17:14:21.256Z,12.30
2023-01-02T17:19:23.751Z,8.73
2023-01-02T17:24:26.022Z,8.13
2023-01-02T17:29:30.739Z,11.88
2023-01-02T17:34:33.204Z,10.43
2023-01-02T17:39:35.988Z,18.52
2023-01-02T17:44:39.413Z,10.30
2023-01-02T17:49:42.671Z,11.52
2023-01-02T17:54:48.587Z,15.70
2023-01-02T17:59:57.459Z,16.67
2023-01-02T18:05:00.439Z,13.05
2023-01-02T18:10:09.120Z,21.73
2023-01-02T18:15:15.939Z,7.20
2023-01-02T18:20:24.049Z,13.25
2023-01-02T18:25:29.988Z,12.98
2023-01-02T18:30:32.226Z,5.60
2023-01-02T18:40:57.221Z,16.00
2023-01-02T18:46:10.037Z,11.35
2023-01-02T18:51:19.989Z,7.13
2023-01-02T18:56:26.939Z,15.68
2023-01-02T19:01:34.365Z,11.77
2023-01-02T19:06:44.159Z,15.65
2023-01-02T19:12:11.283Z,14.50
2023-01-02T19:17:25.770Z,52.45
2023-01-02T19:22:35.027Z,22.77
2023-01-02T19:32:40.000Z,14.07
2023-01-02T19:37:45.293Z,17.92
2023-01-02T19:42:48.841Z,20.83
2023-01-02T19:47:51.904Z,17.05
2023-01-02T19:52:54.737Z,14.57
2023-01-02T19:57:56.989Z,13.93
2023-01-02T20:02:59.721Z,11.20
2023-01-02T20:08:02.398Z,11.65
2023-01-02T20:13:04.635Z,13.32
2023-01-02T20:18:08.838Z,12.38
2023-01-02T20:23:11.321Z,18.65
2023-01-02T20:28:13.436Z,16.23
2023-01-02T20:33:15.537Z,25.33
2023-01-02T20:38:17.722Z,13.80
2023-01-02T20:43:19.883Z,23.42
2023-01-02T20:48:22.052Z,15.07
2023-01-02T20:53:24.441Z,13.27
2023-01-02T20:58:26.557Z,8.20
2023-01-02T21:03:28.807Z,17.25
2023-01-02T21:08:31.133Z,7.05
2023-01-02T21:13:33.759Z,20.10
2023-01-02T21:18:39.278Z,9.35
2023-01-02T21:23:42.116Z,15.35
2023-01-02T21:28:44.775Z,10.15
2023-01-02T21:33:47.944Z,21.48
2023-01-02T21:38:50.289Z,18.60
2023-01-02T21:43:52.409Z,11.70
2023-01-02T21:48:54.589Z,8.23
2023-01-02T21:53:56.714Z,9.43
2023-01-02T21:58:58.847Z,10.07
2023-01-02T22:04:00.964Z,10.75
2023-01-02T22:09:03.750Z,5.55
2023-01-02T22:14:05.904Z,18.05
2023-01-02T22:19:08.134Z,6.57
2023-01-02T22:24:10.397Z,11.23
2023-01-02T22:29:14.444Z,10.93
2023-01-02T22:34:19.453Z,12.85
2023-01-02T22:39:29.122Z,5.32
2023-01-02T22:44:31.352Z,10.05
2023-01-02T22:49:36.077Z,12.35
2023-01-02T22:54:38.913Z,15.02
2023-01-02T22:59:41.771Z,40.85
2023-01-02T23:04:44.588Z,60.35
2023-01-02T23:09:48.025Z,39.35
2023-01-02T23:14:50.366Z,11.18
2023-01-02T23:19:52.509Z,14.43
2023-01-02T23:24:54.630Z,26.77
2023-01-02T23:29:56.767Z,11.73
2023-01-02T23:34:58.881Z,9.82
2023-01-02T23:40:01.297Z,9.88
2023-01-02T23:45:03.729Z,14.85
2023-01-02T23:50:06.678Z,8.63
2023-01-02T23:55:09.308Z,25.00
